Aérodrome :
LOGIN :

S'inscrire | Disclaimer

   EN    FR    IT 

 










Légende :    VFR   VFR Marginal   IFR   IFR Intensif   IFR Très Intensif
Visi : 
Plafond : 
>= 8 km
>= 3000ft
5 à 8 km
1000 à 3000 ft
1500m à 5 km
500 à 1000 ft
800 à 1500m
200 à 500 ft
< 800m
< 200 ft
Symboles :   Orages  Brouillard  Fortes neiges  Fortes précipitations  Vent > 20 kt
SIGMETs :   Divers  Orages  Givrage  Turbulence  Onde Orograph.  Cendres Volcan.






- Altitude de l'aérodrome : 119 ft
- Code IATA : WAT


EIWF - Waterford

DERNIER METAR :
  • 151500Z 07006KT 040V100 8000 -RA SCT010 BKN018 15/14 Q1006

METARs EXPIRÉS :
  • 151430Z 06006KT 9000 -RA SCT008 BKN012 14/13 Q1006 RERA
  • 151400Z VRB02KT 9000 RA SCT013 BKN016 15/15 Q1006
  • 151330Z VRB02KT 9000 -RA SCT005 BKN010 14/14 Q1006 REDZ
  • 151300Z VRB02KT 8000 DZ SCT004 BKN023 14/13 Q1006 RERA REDZ
  • 151130Z 10007KT 070V130 9000 SCT011 BKN028 14/13 Q1006
  • 151100Z 09006KT 060V120 9999 FEW014 BKN029 14/13 Q1006
  • 151030Z 08006KT 050V110 9999 FEW028 BKN032 14/13 Q1006

TAF TAF EIWF
Valide du 15 à 15h jusqu'au 16 à 00h UTC


151400Z 1515/1524 07010KT 9999 -RA SCT012 BKN018
TEMPO 1515/1520 4000 -RADZ BKN012
PROB40
TEMPO 1515/1520 2000 RA BR BKN006
BECMG 1518/1520 34005KT
PROB40
TEMPO 1520/1522 4000 BKN012
ATIS : +353 51 877 000



MET'MAP, la Météo Aéronautique d'un coup d'oeil ! - Copyright ORBIFLY Décembre 2007 - Disclaimer

ORBIFLY MET'MAP TEAM :

Programmation & Développement : Alexandra Zaïnal
Sur une idée originale de : Baudouin d'Aumeries
Soutien technique & logistique : Manuel Goepfert
Assistance : Marc-Olivier Méhu




SOURCES & CREDITS :

   NOAA